sensor_id;sensor_type;location;lat;lon;timestamp;P1;durP1;ratioP1;P2;durP2;ratioP2
6651;SDS011;3362;50.892;10.692;2022-08-18T00:01:14;4.65;;;3.97;;
6651;SDS011;3362;50.892;10.692;2022-08-18T00:03:41;4.18;;;3.78;;
6651;SDS011;3362;50.892;10.692;2022-08-18T00:06:08;5.72;;;4.35;;
6651;SDS011;3362;50.892;10.692;2022-08-18T00:08:34;5.95;;;3.80;;
6651;SDS011;3362;50.892;10.692;2022-08-18T00:11:00;6.38;;;4.15;;
6651;SDS011;3362;50.892;10.692;2022-08-18T00:13:28;5.20;;;3.97;;
6651;SDS011;3362;50.892;10.692;2022-08-18T00:15:54;4.22;;;3.83;;
6651;SDS011;3362;50.892;10.692;2022-08-18T00:18:20;5.18;;;4.07;;
6651;SDS011;3362;50.892;10.692;2022-08-18T00:20:46;8.30;;;4.13;;
6651;SDS011;3362;50.892;10.692;2022-08-18T00:23:13;8.25;;;3.83;;
6651;SDS011;3362;50.892;10.692;2022-08-18T00:25:39;3.50;;;2.92;;
6651;SDS011;3362;50.892;10.692;2022-08-18T00:28:05;4.15;;;3.38;;
6651;SDS011;3362;50.892;10.692;2022-08-18T00:30:33;5.05;;;3.97;;
6651;SDS011;3362;50.892;10.692;2022-08-18T00:32:59;6.60;;;3.72;;
6651;SDS011;3362;50.892;10.692;2022-08-18T00:35:27;4.28;;;3.60;;
6651;SDS011;3362;50.892;10.692;2022-08-18T00:37:54;6.72;;;3.47;;
6651;SDS011;3362;50.892;10.692;2022-08-18T00:40:22;5.43;;;3.75;;
6651;SDS011;3362;50.892;10.692;2022-08-18T00:42:49;4.82;;;3.50;;
6651;SDS011;3362;50.892;10.692;2022-08-18T00:45:18;5.43;;;3.35;;
6651;SDS011;3362;50.892;10.692;2022-08-18T00:47:46;5.03;;;4.15;;
6651;SDS011;3362;50.892;10.692;2022-08-18T00:50:13;6.32;;;3.80;;
6651;SDS011;3362;50.892;10.692;2022-08-18T00:52:40;4.75;;;3.50;;
6651;SDS011;3362;50.892;10.692;2022-08-18T00:55:07;5.38;;;3.75;;
6651;SDS011;3362;50.892;10.692;2022-08-18T00:57:33;6.38;;;3.90;;
6651;SDS011;3362;50.892;10.692;2022-08-18T01:00:00;4.32;;;3.72;;
6651;SDS011;3362;50.892;10.692;2022-08-18T01:02:32;7.20;;;3.60;;
6651;SDS011;3362;50.892;10.692;2022-08-18T01:05:02;6.10;;;3.50;;
6651;SDS011;3362;50.892;10.692;2022-08-18T01:07:32;4.93;;;3.33;;
6651;SDS011;3362;50.892;10.692;2022-08-18T01:10:01;5.45;;;3.67;;
6651;SDS011;3362;50.892;10.692;2022-08-18T01:12:29;6.97;;;4.18;;
6651;SDS011;3362;50.892;10.692;2022-08-18T01:14:55;4.35;;;3.72;;
6651;SDS011;3362;50.892;10.692;2022-08-18T01:17:22;6.78;;;3.35;;
6651;SDS011;3362;50.892;10.692;2022-08-18T01:26:13;5.70;;;3.65;;
6651;SDS011;3362;50.892;10.692;2022-08-18T01:28:42;4.45;;;3.60;;
6651;SDS011;3362;50.892;10.692;2022-08-18T01:31:10;6.47;;;3.42;;
6651;SDS011;3362;50.892;10.692;2022-08-18T01:33:38;4.57;;;3.50;;
6651;SDS011;3362;50.892;10.692;2022-08-18T01:36:07;7.70;;;3.80;;
6651;SDS011;3362;50.892;10.692;2022-08-18T01:38:36;5.70;;;3.28;;
6651;SDS011;3362;50.892;10.692;2022-08-18T01:41:02;4.63;;;3.90;;
6651;SDS011;3362;50.892;10.692;2022-08-18T01:43:30;3.90;;;3.38;;
6651;SDS011;3362;50.892;10.692;2022-08-18T01:45:58;4.25;;;3.47;;
6651;SDS011;3362;50.892;10.692;2022-08-18T01:48:25;3.88;;;3.40;;
6651;SDS011;3362;50.892;10.692;2022-08-18T01:50:51;6.90;;;3.50;;
6651;SDS011;3362;50.892;10.692;2022-08-18T01:53:20;4.28;;;3.58;;
6651;SDS011;3362;50.892;10.692;2022-08-18T01:55:47;3.80;;;3.22;;
6651;SDS011;3362;50.892;10.692;2022-08-18T01:58:13;6.60;;;3.47;;
6651;SDS011;3362;50.892;10.692;2022-08-18T02:00:40;6.50;;;3.28;;
6651;SDS011;3362;50.892;10.692;2022-08-18T02:03:08;3.78;;;3.35;;
6651;SDS011;3362;50.892;10.692;2022-08-18T02:05:37;7.35;;;3.78;;
6651;SDS011;3362;50.892;10.692;2022-08-18T02:08:04;4.93;;;3.88;;
6651;SDS011;3362;50.892;10.692;2022-08-18T02:10:31;5.28;;;3.90;;
6651;SDS011;3362;50.892;10.692;2022-08-18T02:12:57;7.40;;;4.38;;
6651;SDS011;3362;50.892;10.692;2022-08-18T02:15:23;5.43;;;4.03;;
6651;SDS011;3362;50.892;10.692;2022-08-18T02:17:51;5.25;;;3.95;;
6651;SDS011;3362;50.892;10.692;2022-08-18T02:20:17;6.68;;;5.07;;
6651;SDS011;3362;50.892;10.692;2022-08-18T02:22:44;6.95;;;4.80;;
6651;SDS011;3362;50.892;10.692;2022-08-18T02:25:11;7.65;;;4.20;;
6651;SDS011;3362;50.892;10.692;2022-08-18T02:27:38;6.18;;;4.22;;
6651;SDS011;3362;50.892;10.692;2022-08-18T02:30:05;5.03;;;3.72;;
6651;SDS011;3362;50.892;10.692;2022-08-18T02:32:32;5.80;;;4.22;;
6651;SDS011;3362;50.892;10.692;2022-08-18T02:35:00;7.10;;;4.20;;
6651;SDS011;3362;50.892;10.692;2022-08-18T02:37:26;5.40;;;4.05;;
6651;SDS011;3362;50.892;10.692;2022-08-18T02:39:52;4.22;;;3.50;;
6651;SDS011;3362;50.892;10.692;2022-08-18T02:42:18;7.00;;;3.75;;
6651;SDS011;3362;50.892;10.692;2022-08-18T02:44:45;7.15;;;3.85;;
6651;SDS011;3362;50.892;10.692;2022-08-18T02:47:11;4.50;;;3.67;;
6651;SDS011;3362;50.892;10.692;2022-08-18T02:49:37;4.38;;;3.97;;
6651;SDS011;3362;50.892;10.692;2022-08-18T02:52:05;7.10;;;4.35;;
6651;SDS011;3362;50.892;10.692;2022-08-18T02:54:31;4.70;;;3.90;;
6651;SDS011;3362;50.892;10.692;2022-08-18T02:56:59;7.45;;;4.60;;
6651;SDS011;3362;50.892;10.692;2022-08-18T02:59:30;4.95;;;3.67;;
6651;SDS011;3362;50.892;10.692;2022-08-18T03:01:57;9.82;;;3.63;;
6651;SDS011;3362;50.892;10.692;2022-08-18T03:04:24;8.52;;;3.85;;
6651;SDS011;3362;50.892;10.692;2022-08-18T03:06:51;4.15;;;3.53;;
6651;SDS011;3362;50.892;10.692;2022-08-18T03:09:18;4.18;;;3.35;;
6651;SDS011;3362;50.892;10.692;2022-08-18T03:11:45;5.45;;;4.55;;
6651;SDS011;3362;50.892;10.692;2022-08-18T03:14:12;6.78;;;3.92;;
6651;SDS011;3362;50.892;10.692;2022-08-18T03:16:39;6.70;;;4.32;;
6651;SDS011;3362;50.892;10.692;2022-08-18T03:19:05;9.30;;;4.38;;
6651;SDS011;3362;50.892;10.692;2022-08-18T03:21:32;5.20;;;4.07;;
6651;SDS011;3362;50.892;10.692;2022-08-18T03:23:59;10.55;;;3.92;;
6651;SDS011;3362;50.892;10.692;2022-08-18T03:26:27;4.75;;;3.65;;
6651;SDS011;3362;50.892;10.692;2022-08-18T03:28:54;5.43;;;3.63;;
6651;SDS011;3362;50.892;10.692;2022-08-18T03:31:22;5.95;;;4.10;;
6651;SDS011;3362;50.892;10.692;2022-08-18T03:33:49;4.40;;;3.40;;
6651;SDS011;3362;50.892;10.692;2022-08-18T03:36:17;6.88;;;3.97;;
6651;SDS011;3362;50.892;10.692;2022-08-18T03:38:44;6.72;;;4.60;;
6651;SDS011;3362;50.892;10.692;2022-08-18T03:41:11;5.70;;;4.32;;
6651;SDS011;3362;50.892;10.692;2022-08-18T03:43:39;5.72;;;3.83;;
6651;SDS011;3362;50.892;10.692;2022-08-18T03:46:06;10.50;;;5.95;;
6651;SDS011;3362;50.892;10.692;2022-08-18T03:48:33;8.02;;;4.82;;
6651;SDS011;3362;50.892;10.692;2022-08-18T03:51:02;7.72;;;4.75;;
6651;SDS011;3362;50.892;10.692;2022-08-18T03:53:28;6.22;;;4.63;;
6651;SDS011;3362;50.892;10.692;2022-08-18T03:55:54;5.72;;;4.28;;
6651;SDS011;3362;50.892;10.692;2022-08-18T03:58:21;5.68;;;3.75;;
6651;SDS011;3362;50.892;10.692;2022-08-18T04:00:50;6.47;;;4.07;;
6651;SDS011;3362;50.892;10.692;2022-08-18T04:03:16;5.40;;;4.30;;
6651;SDS011;3362;50.892;10.692;2022-08-18T04:05:42;8.95;;;4.53;;
6651;SDS011;3362;50.892;10.692;2022-08-18T04:08:09;7.15;;;4.65;;
6651;SDS011;3362;50.892;10.692;2022-08-18T04:10:37;6.35;;;4.85;;
6651;SDS011;3362;50.892;10.692;2022-08-18T04:13:03;6.80;;;4.15;;
6651;SDS011;3362;50.892;10.692;2022-08-18T04:15:30;6.15;;;4.63;;
6651;SDS011;3362;50.892;10.692;2022-08-18T04:17:58;13.80;;;4.28;;
6651;SDS011;3362;50.892;10.692;2022-08-18T04:20:25;7.28;;;4.55;;
6651;SDS011;3362;50.892;10.692;2022-08-18T04:22:51;5.82;;;4.10;;
6651;SDS011;3362;50.892;10.692;2022-08-18T04:25:17;8.35;;;4.43;;
6651;SDS011;3362;50.892;10.692;2022-08-18T04:27:43;11.02;;;4.88;;
6651;SDS011;3362;50.892;10.692;2022-08-18T04:30:10;7.63;;;5.72;;
6651;SDS011;3362;50.892;10.692;2022-08-18T04:32:36;10.20;;;4.32;;
6651;SDS011;3362;50.892;10.692;2022-08-18T04:35:05;7.28;;;5.70;;
6651;SDS011;3362;50.892;10.692;2022-08-18T04:37:31;7.30;;;5.15;;
6651;SDS011;3362;50.892;10.692;2022-08-18T04:39:57;10.07;;;5.63;;
6651;SDS011;3362;50.892;10.692;2022-08-18T04:42:24;7.93;;;5.70;;
6651;SDS011;3362;50.892;10.692;2022-08-18T04:44:50;6.88;;;5.65;;
6651;SDS011;3362;50.892;10.692;2022-08-18T04:47:17;9.25;;;5.22;;
6651;SDS011;3362;50.892;10.692;2022-08-18T04:49:44;7.88;;;6.03;;
6651;SDS011;3362;50.892;10.692;2022-08-18T04:52:11;13.23;;;6.25;;
6651;SDS011;3362;50.892;10.692;2022-08-18T04:54:55;8.90;;;5.53;;
6651;SDS011;3362;50.892;10.692;2022-08-18T04:57:21;7.28;;;5.78;;
6651;SDS011;3362;50.892;10.692;2022-08-18T04:59:50;7.60;;;5.60;;
6651;SDS011;3362;50.892;10.692;2022-08-18T05:02:17;8.70;;;5.93;;
6651;SDS011;3362;50.892;10.692;2022-08-18T05:04:44;9.07;;;5.38;;
6651;SDS011;3362;50.892;10.692;2022-08-18T05:07:13;6.85;;;5.40;;
6651;SDS011;3362;50.892;10.692;2022-08-18T05:09:40;9.75;;;4.97;;
6651;SDS011;3362;50.892;10.692;2022-08-18T05:12:09;9.05;;;5.57;;
6651;SDS011;3362;50.892;10.692;2022-08-18T05:14:37;10.00;;;6.18;;
6651;SDS011;3362;50.892;10.692;2022-08-18T05:17:03;13.70;;;7.40;;
6651;SDS011;3362;50.892;10.692;2022-08-18T05:19:30;8.70;;;7.10;;
6651;SDS011;3362;50.892;10.692;2022-08-18T05:21:59;15.13;;;8.15;;
6651;SDS011;3362;50.892;10.692;2022-08-18T05:24:27;14.30;;;7.95;;
6651;SDS011;3362;50.892;10.692;2022-08-18T05:26:54;16.15;;;9.02;;
6651;SDS011;3362;50.892;10.692;2022-08-18T05:29:21;16.65;;;7.93;;
6651;SDS011;3362;50.892;10.692;2022-08-18T05:31:47;12.25;;;9.52;;
6651;SDS011;3362;50.892;10.692;2022-08-18T05:34:14;15.85;;;9.73;;
6651;SDS011;3362;50.892;10.692;2022-08-18T05:36:48;18.25;;;9.20;;
6651;SDS011;3362;50.892;10.692;2022-08-18T05:39:20;14.82;;;9.75;;
6651;SDS011;3362;50.892;10.692;2022-08-18T05:41:49;24.05;;;10.75;;
6651;SDS011;3362;50.892;10.692;2022-08-18T05:44:18;24.92;;;13.23;;
6651;SDS011;3362;50.892;10.692;2022-08-18T05:46:46;26.80;;;13.02;;
6651;SDS011;3362;50.892;10.692;2022-08-18T05:49:14;26.67;;;15.13;;
6651;SDS011;3362;50.892;10.692;2022-08-18T05:51:42;27.98;;;16.02;;
6651;SDS011;3362;50.892;10.692;2022-08-18T05:54:09;25.48;;;16.02;;
6651;SDS011;3362;50.892;10.692;2022-08-18T05:56:56;27.42;;;17.17;;
6651;SDS011;3362;50.892;10.692;2022-08-18T05:59:24;25.70;;;16.42;;
6651;SDS011;3362;50.892;10.692;2022-08-18T06:01:54;27.23;;;17.40;;
6651;SDS011;3362;50.892;10.692;2022-08-18T06:04:25;27.60;;;18.75;;
6651;SDS011;3362;50.892;10.692;2022-08-18T06:06:53;26.17;;;17.30;;
6651;SDS011;3362;50.892;10.692;2022-08-18T06:09:23;29.52;;;18.38;;
6651;SDS011;3362;50.892;10.692;2022-08-18T06:11:51;31.88;;;19.83;;
6651;SDS011;3362;50.892;10.692;2022-08-18T06:14:20;29.52;;;19.25;;
6651;SDS011;3362;50.892;10.692;2022-08-18T06:16:49;31.27;;;18.92;;
6651;SDS011;3362;50.892;10.692;2022-08-18T06:19:24;31.50;;;18.45;;
6651;SDS011;3362;50.892;10.692;2022-08-18T06:21:53;26.85;;;18.25;;
6651;SDS011;3362;50.892;10.692;2022-08-18T06:24:24;30.73;;;17.38;;
6651;SDS011;3362;50.892;10.692;2022-08-18T06:26:53;29.42;;;17.63;;
6651;SDS011;3362;50.892;10.692;2022-08-18T06:29:26;29.27;;;18.08;;
6651;SDS011;3362;50.892;10.692;2022-08-18T06:31:57;27.02;;;18.00;;
6651;SDS011;3362;50.892;10.692;2022-08-18T06:34:29;25.50;;;17.02;;
6651;SDS011;3362;50.892;10.692;2022-08-18T06:36:58;24.13;;;16.63;;
6651;SDS011;3362;50.892;10.692;2022-08-18T06:39:28;24.55;;;17.35;;
6651;SDS011;3362;50.892;10.692;2022-08-18T06:41:56;30.30;;;17.38;;
6651;SDS011;3362;50.892;10.692;2022-08-18T06:44:24;27.08;;;17.38;;
6651;SDS011;3362;50.892;10.692;2022-08-18T06:46:57;26.15;;;17.08;;
6651;SDS011;3362;50.892;10.692;2022-08-18T06:49:32;27.55;;;17.60;;
6651;SDS011;3362;50.892;10.692;2022-08-18T06:54:41;35.95;;;16.67;;
6651;SDS011;3362;50.892;10.692;2022-08-18T06:57:08;30.38;;;19.25;;
6651;SDS011;3362;50.892;10.692;2022-08-18T06:59:53;30.40;;;19.73;;
6651;SDS011;3362;50.892;10.692;2022-08-18T07:02:21;26.98;;;17.75;;
6651;SDS011;3362;50.892;10.692;2022-08-18T07:04:59;31.02;;;18.42;;
6651;SDS011;3362;50.892;10.692;2022-08-18T07:07:29;29.17;;;18.52;;
6651;SDS011;3362;50.892;10.692;2022-08-18T07:09:56;27.27;;;17.50;;
6651;SDS011;3362;50.892;10.692;2022-08-18T07:12:22;26.95;;;19.45;;
6651;SDS011;3362;50.892;10.692;2022-08-18T07:14:50;28.95;;;19.92;;
6651;SDS011;3362;50.892;10.692;2022-08-18T07:17:22;27.65;;;18.45;;
6651;SDS011;3362;50.892;10.692;2022-08-18T07:19:53;33.95;;;19.88;;
6651;SDS011;3362;50.892;10.692;2022-08-18T07:22:20;31.60;;;19.15;;
6651;SDS011;3362;50.892;10.692;2022-08-18T07:24:47;26.17;;;17.60;;
6651;SDS011;3362;50.892;10.692;2022-08-18T07:27:15;27.73;;;18.20;;
6651;SDS011;3362;50.892;10.692;2022-08-18T07:29:58;25.02;;;17.48;;
6651;SDS011;3362;50.892;10.692;2022-08-18T07:32:27;24.23;;;17.40;;
6651;SDS011;3362;50.892;10.692;2022-08-18T07:34:57;27.95;;;19.20;;
6651;SDS011;3362;50.892;10.692;2022-08-18T07:37:27;31.85;;;19.52;;
6651;SDS011;3362;50.892;10.692;2022-08-18T07:39:56;34.42;;;18.70;;
6651;SDS011;3362;50.892;10.692;2022-08-18T07:42:27;31.95;;;19.33;;
6651;SDS011;3362;50.892;10.692;2022-08-18T07:44:59;28.73;;;19.48;;
6651;SDS011;3362;50.892;10.692;2022-08-18T07:47:29;28.63;;;18.98;;
6651;SDS011;3362;50.892;10.692;2022-08-18T07:49:56;28.50;;;19.55;;
6651;SDS011;3362;50.892;10.692;2022-08-18T07:52:24;29.35;;;19.27;;
6651;SDS011;3362;50.892;10.692;2022-08-18T07:54:53;27.15;;;17.20;;
6651;SDS011;3362;50.892;10.692;2022-08-18T07:57:24;41.67;;;17.08;;
6651;SDS011;3362;50.892;10.692;2022-08-18T07:59:53;42.25;;;17.63;;
6651;SDS011;3362;50.892;10.692;2022-08-18T08:02:27;37.63;;;16.92;;
6651;SDS011;3362;50.892;10.692;2022-08-18T08:05:00;60.60;;;17.33;;
6651;SDS011;3362;50.892;10.692;2022-08-18T08:07:29;54.63;;;20.10;;
6651;SDS011;3362;50.892;10.692;2022-08-18T08:09:59;33.00;;;16.00;;
6651;SDS011;3362;50.892;10.692;2022-08-18T08:12:30;43.65;;;17.08;;
6651;SDS011;3362;50.892;10.692;2022-08-18T08:15:00;32.83;;;16.90;;
6651;SDS011;3362;50.892;10.692;2022-08-18T08:17:32;47.10;;;15.85;;
6651;SDS011;3362;50.892;10.692;2022-08-18T08:20:06;48.47;;;16.00;;
6651;SDS011;3362;50.892;10.692;2022-08-18T08:22:36;43.75;;;14.95;;
6651;SDS011;3362;50.892;10.692;2022-08-18T08:25:05;37.65;;;15.85;;
6651;SDS011;3362;50.892;10.692;2022-08-18T08:27:36;32.05;;;14.35;;
6651;SDS011;3362;50.892;10.692;2022-08-18T08:30:06;25.67;;;13.73;;
6651;SDS011;3362;50.892;10.692;2022-08-18T08:32:34;31.85;;;13.82;;
6651;SDS011;3362;50.892;10.692;2022-08-18T08:35:03;31.98;;;14.13;;
6651;SDS011;3362;50.892;10.692;2022-08-18T08:37:34;38.38;;;14.35;;
6651;SDS011;3362;50.892;10.692;2022-08-18T08:40:02;33.08;;;13.68;;
6651;SDS011;3362;50.892;10.692;2022-08-18T08:42:35;30.67;;;13.13;;
6651;SDS011;3362;50.892;10.692;2022-08-18T08:45:04;29.98;;;13.07;;
6651;SDS011;3362;50.892;10.692;2022-08-18T08:47:33;28.23;;;13.52;;
6651;SDS011;3362;50.892;10.692;2022-08-18T08:50:02;26.55;;;13.90;;
6651;SDS011;3362;50.892;10.692;2022-08-18T08:52:29;24.08;;;13.57;;
6651;SDS011;3362;50.892;10.692;2022-08-18T08:54:59;30.25;;;13.82;;
6651;SDS011;3362;50.892;10.692;2022-08-18T08:57:28;23.13;;;14.50;;
6651;SDS011;3362;50.892;10.692;2022-08-18T08:59:57;20.83;;;14.32;;
6651;SDS011;3362;50.892;10.692;2022-08-18T09:02:29;24.15;;;15.15;;
6651;SDS011;3362;50.892;10.692;2022-08-18T09:04:59;23.05;;;16.55;;
6651;SDS011;3362;50.892;10.692;2022-08-18T09:07:32;28.13;;;16.48;;
6651;SDS011;3362;50.892;10.692;2022-08-18T09:10:10;32.28;;;15.70;;
6651;SDS011;3362;50.892;10.692;2022-08-18T09:12:43;28.98;;;14.20;;
6651;SDS011;3362;50.892;10.692;2022-08-18T09:15:16;40.72;;;14.98;;
6651;SDS011;3362;50.892;10.692;2022-08-18T09:17:52;26.00;;;14.75;;
6651;SDS011;3362;50.892;10.692;2022-08-18T09:20:29;37.17;;;16.52;;
6651;SDS011;3362;50.892;10.692;2022-08-18T09:22:59;30.70;;;14.15;;
6651;SDS011;3362;50.892;10.692;2022-08-18T09:25:33;22.30;;;14.38;;
6651;SDS011;3362;50.892;10.692;2022-08-18T09:28:09;31.17;;;14.18;;
6651;SDS011;3362;50.892;10.692;2022-08-18T09:30:39;25.98;;;14.25;;
6651;SDS011;3362;50.892;10.692;2022-08-18T09:33:11;38.30;;;13.52;;
6651;SDS011;3362;50.892;10.692;2022-08-18T09:35:43;25.95;;;14.05;;
6651;SDS011;3362;50.892;10.692;2022-08-18T09:38:12;19.13;;;12.68;;
6651;SDS011;3362;50.892;10.692;2022-08-18T09:41:03;25.23;;;12.85;;
6651;SDS011;3362;50.892;10.692;2022-08-18T09:43:56;20.98;;;13.30;;
6651;SDS011;3362;50.892;10.692;2022-08-18T09:46:53;21.85;;;13.20;;
6651;SDS011;3362;50.892;10.692;2022-08-18T09:54:47;21.52;;;13.55;;
6651;SDS011;3362;50.892;10.692;2022-08-18T09:57:21;27.80;;;15.75;;
6651;SDS011;3362;50.892;10.692;2022-08-18T09:59:53;32.97;;;18.50;;
6651;SDS011;3362;50.892;10.692;2022-08-18T10:05:21;32.17;;;20.98;;
6651;SDS011;3362;50.892;10.692;2022-08-18T10:07:50;35.90;;;21.40;;
6651;SDS011;3362;50.892;10.692;2022-08-18T10:10:20;30.70;;;21.15;;
6651;SDS011;3362;50.892;10.692;2022-08-18T10:12:54;35.95;;;21.17;;
6651;SDS011;3362;50.892;10.692;2022-08-18T10:15:31;37.97;;;21.58;;
6651;SDS011;3362;50.892;10.692;2022-08-18T10:18:07;32.95;;;22.13;;
6651;SDS011;3362;50.892;10.692;2022-08-18T10:20:39;36.58;;;21.80;;
6651;SDS011;3362;50.892;10.692;2022-08-18T10:23:07;32.58;;;20.65;;
6651;SDS011;3362;50.892;10.692;2022-08-18T10:25:36;36.88;;;21.73;;
6651;SDS011;3362;50.892;10.692;2022-08-18T10:28:04;35.10;;;21.30;;
6651;SDS011;3362;50.892;10.692;2022-08-18T10:36:02;32.85;;;21.88;;
6651;SDS011;3362;50.892;10.692;2022-08-18T10:38:35;31.55;;;22.05;;
6651;SDS011;3362;50.892;10.692;2022-08-18T10:41:04;34.42;;;22.35;;
6651;SDS011;3362;50.892;10.692;2022-08-18T10:43:34;35.92;;;22.35;;
6651;SDS011;3362;50.892;10.692;2022-08-18T10:46:02;32.17;;;21.50;;
6651;SDS011;3362;50.892;10.692;2022-08-18T10:48:30;37.33;;;22.05;;
6651;SDS011;3362;50.892;10.692;2022-08-18T10:50:58;35.65;;;22.27;;
6651;SDS011;3362;50.892;10.692;2022-08-18T10:53:28;32.22;;;20.65;;
6651;SDS011;3362;50.892;10.692;2022-08-18T10:55:57;37.13;;;21.13;;
6651;SDS011;3362;50.892;10.692;2022-08-18T10:58:38;32.22;;;21.25;;
6651;SDS011;3362;50.892;10.692;2022-08-18T11:01:09;32.25;;;20.40;;
6651;SDS011;3362;50.892;10.692;2022-08-18T11:03:41;37.13;;;23.45;;
6651;SDS011;3362;50.892;10.692;2022-08-18T11:06:10;38.28;;;23.20;;
6651;SDS011;3362;50.892;10.692;2022-08-18T11:08:43;33.88;;;21.63;;
6651;SDS011;3362;50.892;10.692;2022-08-18T11:11:10;32.75;;;21.75;;
6651;SDS011;3362;50.892;10.692;2022-08-18T11:13:44;35.40;;;21.58;;
6651;SDS011;3362;50.892;10.692;2022-08-18T11:16:16;41.28;;;23.77;;
6651;SDS011;3362;50.892;10.692;2022-08-18T11:18:47;42.17;;;24.98;;
6651;SDS011;3362;50.892;10.692;2022-08-18T11:21:30;41.15;;;24.58;;
6651;SDS011;3362;50.892;10.692;2022-08-18T11:24:04;35.05;;;23.52;;
6651;SDS011;3362;50.892;10.692;2022-08-18T11:26:31;39.75;;;24.45;;
6651;SDS011;3362;50.892;10.692;2022-08-18T11:29:00;39.03;;;24.33;;
6651;SDS011;3362;50.892;10.692;2022-08-18T11:31:26;34.72;;;21.92;;
6651;SDS011;3362;50.892;10.692;2022-08-18T11:33:53;29.63;;;19.30;;
6651;SDS011;3362;50.892;10.692;2022-08-18T11:36:27;30.50;;;20.70;;
6651;SDS011;3362;50.892;10.692;2022-08-18T11:38:54;32.33;;;20.67;;
6651;SDS011;3362;50.892;10.692;2022-08-18T11:41:24;26.23;;;19.23;;
6651;SDS011;3362;50.892;10.692;2022-08-18T11:43:53;28.88;;;19.92;;
6651;SDS011;3362;50.892;10.692;2022-08-18T11:46:22;32.00;;;21.02;;
6651;SDS011;3362;50.892;10.692;2022-08-18T11:48:52;28.33;;;20.15;;
6651;SDS011;3362;50.892;10.692;2022-08-18T11:51:19;30.10;;;20.77;;
6651;SDS011;3362;50.892;10.692;2022-08-18T11:53:53;26.40;;;18.17;;
6651;SDS011;3362;50.892;10.692;2022-08-18T11:56:21;24.13;;;17.73;;
6651;SDS011;3362;50.892;10.692;2022-08-18T11:58:49;33.80;;;17.92;;
6651;SDS011;3362;50.892;10.692;2022-08-18T12:04:15;31.75;;;19.40;;
6651;SDS011;3362;50.892;10.692;2022-08-18T12:06:52;27.92;;;19.85;;
6651;SDS011;3362;50.892;10.692;2022-08-18T12:09:21;34.70;;;20.80;;
6651;SDS011;3362;50.892;10.692;2022-08-18T12:11:49;28.02;;;18.23;;
6651;SDS011;3362;50.892;10.692;2022-08-18T12:14:16;24.33;;;16.83;;
6651;SDS011;3362;50.892;10.692;2022-08-18T12:16:42;23.23;;;14.88;;
6651;SDS011;3362;50.892;10.692;2022-08-18T12:19:10;20.98;;;15.10;;
6651;SDS011;3362;50.892;10.692;2022-08-18T12:21:38;17.20;;;12.32;;
6651;SDS011;3362;50.892;10.692;2022-08-18T12:24:05;18.50;;;13.32;;
6651;SDS011;3362;50.892;10.692;2022-08-18T12:26:34;19.98;;;13.00;;
6651;SDS011;3362;50.892;10.692;2022-08-18T12:29:01;19.70;;;13.48;;
6651;SDS011;3362;50.892;10.692;2022-08-18T12:31:27;16.23;;;12.13;;
6651;SDS011;3362;50.892;10.692;2022-08-18T12:33:53;12.15;;;10.75;;
6651;SDS011;3362;50.892;10.692;2022-08-18T12:36:19;17.63;;;13.35;;
6651;SDS011;3362;50.892;10.692;2022-08-18T12:38:47;15.38;;;12.38;;
6651;SDS011;3362;50.892;10.692;2022-08-18T12:41:13;17.10;;;11.57;;
6651;SDS011;3362;50.892;10.692;2022-08-18T12:43:39;15.25;;;12.07;;
6651;SDS011;3362;50.892;10.692;2022-08-18T12:46:05;13.52;;;12.15;;
6651;SDS011;3362;50.892;10.692;2022-08-18T12:48:32;15.95;;;11.43;;
6651;SDS011;3362;50.892;10.692;2022-08-18T12:50:58;12.63;;;11.18;;
6651;SDS011;3362;50.892;10.692;2022-08-18T12:53:25;13.88;;;11.32;;
6651;SDS011;3362;50.892;10.692;2022-08-18T12:55:52;14.18;;;12.20;;
6651;SDS011;3362;50.892;10.692;2022-08-18T12:58:18;17.77;;;13.70;;
6651;SDS011;3362;50.892;10.692;2022-08-18T13:00:45;16.45;;;13.30;;
6651;SDS011;3362;50.892;10.692;2022-08-18T13:03:12;19.85;;;13.80;;
6651;SDS011;3362;50.892;10.692;2022-08-18T13:05:38;18.30;;;13.52;;
6651;SDS011;3362;50.892;10.692;2022-08-18T13:08:05;17.17;;;13.02;;
6651;SDS011;3362;50.892;10.692;2022-08-18T13:10:33;19.42;;;14.70;;
6651;SDS011;3362;50.892;10.692;2022-08-18T13:13:01;17.67;;;13.40;;
6651;SDS011;3362;50.892;10.692;2022-08-18T13:15:27;21.00;;;15.75;;
6651;SDS011;3362;50.892;10.692;2022-08-18T13:17:53;19.67;;;14.38;;
6651;SDS011;3362;50.892;10.692;2022-08-18T13:20:19;16.05;;;12.85;;
6651;SDS011;3362;50.892;10.692;2022-08-18T13:22:46;18.52;;;12.05;;
6651;SDS011;3362;50.892;10.692;2022-08-18T13:25:13;14.60;;;10.25;;
6651;SDS011;3362;50.892;10.692;2022-08-18T13:27:40;17.63;;;10.70;;
6651;SDS011;3362;50.892;10.692;2022-08-18T13:30:09;13.75;;;10.43;;
6651;SDS011;3362;50.892;10.692;2022-08-18T13:32:36;14.10;;;9.48;;
6651;SDS011;3362;50.892;10.692;2022-08-18T13:35:02;12.43;;;10.32;;
6651;SDS011;3362;50.892;10.692;2022-08-18T13:37:29;9.98;;;8.88;;
6651;SDS011;3362;50.892;10.692;2022-08-18T13:39:56;12.10;;;9.50;;
6651;SDS011;3362;50.892;10.692;2022-08-18T13:42:22;12.15;;;8.82;;
6651;SDS011;3362;50.892;10.692;2022-08-18T13:44:48;11.85;;;8.43;;
6651;SDS011;3362;50.892;10.692;2022-08-18T13:47:15;11.32;;;8.75;;
6651;SDS011;3362;50.892;10.692;2022-08-18T13:49:42;10.43;;;8.45;;
6651;SDS011;3362;50.892;10.692;2022-08-18T13:52:09;9.85;;;8.38;;
6651;SDS011;3362;50.892;10.692;2022-08-18T13:54:38;9.30;;;8.25;;
6651;SDS011;3362;50.892;10.692;2022-08-18T13:57:04;12.70;;;9.05;;
6651;SDS011;3362;50.892;10.692;2022-08-18T13:59:31;10.85;;;9.60;;
6651;SDS011;3362;50.892;10.692;2022-08-18T14:01:58;13.68;;;9.35;;
6651;SDS011;3362;50.892;10.692;2022-08-18T14:04:26;13.63;;;8.82;;
6651;SDS011;3362;50.892;10.692;2022-08-18T14:06:53;12.70;;;9.75;;
6651;SDS011;3362;50.892;10.692;2022-08-18T14:09:20;14.27;;;10.07;;
6651;SDS011;3362;50.892;10.692;2022-08-18T14:11:46;13.85;;;10.38;;
6651;SDS011;3362;50.892;10.692;2022-08-18T14:14:13;12.10;;;10.35;;
6651;SDS011;3362;50.892;10.692;2022-08-18T14:16:39;13.18;;;11.07;;
6651;SDS011;3362;50.892;10.692;2022-08-18T14:19:06;13.25;;;9.93;;
6651;SDS011;3362;50.892;10.692;2022-08-18T14:22:02;14.20;;;11.90;;
6651;SDS011;3362;50.892;10.692;2022-08-18T14:24:46;18.13;;;12.43;;
6651;SDS011;3362;50.892;10.692;2022-08-18T14:27:38;11.63;;;9.38;;
6651;SDS011;3362;50.892;10.692;2022-08-18T14:30:05;12.77;;;9.90;;
6651;SDS011;3362;50.892;10.692;2022-08-18T14:32:32;11.40;;;9.45;;
6651;SDS011;3362;50.892;10.692;2022-08-18T14:34:59;13.07;;;9.40;;
6651;SDS011;3362;50.892;10.692;2022-08-18T14:37:27;10.68;;;9.07;;
6651;SDS011;3362;50.892;10.692;2022-08-18T14:39:54;11.57;;;9.32;;
6651;SDS011;3362;50.892;10.692;2022-08-18T14:42:20;9.40;;;8.40;;
6651;SDS011;3362;50.892;10.692;2022-08-18T14:44:46;14.35;;;9.25;;
6651;SDS011;3362;50.892;10.692;2022-08-18T14:47:13;14.40;;;9.75;;
6651;SDS011;3362;50.892;10.692;2022-08-18T14:49:39;10.23;;;9.13;;
6651;SDS011;3362;50.892;10.692;2022-08-18T14:52:07;10.52;;;8.00;;
6651;SDS011;3362;50.892;10.692;2022-08-18T14:54:35;13.55;;;8.38;;
6651;SDS011;3362;50.892;10.692;2022-08-18T14:57:02;11.50;;;8.65;;
6651;SDS011;3362;50.892;10.692;2022-08-18T14:59:28;8.65;;;7.47;;
6651;SDS011;3362;50.892;10.692;2022-08-18T15:01:56;9.65;;;7.97;;
6651;SDS011;3362;50.892;10.692;2022-08-18T15:04:22;11.20;;;8.30;;
6651;SDS011;3362;50.892;10.692;2022-08-18T15:06:49;14.82;;;9.50;;
6651;SDS011;3362;50.892;10.692;2022-08-18T15:09:15;14.40;;;9.85;;
6651;SDS011;3362;50.892;10.692;2022-08-18T15:11:42;8.68;;;6.95;;
6651;SDS011;3362;50.892;10.692;2022-08-18T15:14:09;10.43;;;7.57;;
6651;SDS011;3362;50.892;10.692;2022-08-18T15:16:35;12.85;;;9.68;;
6651;SDS011;3362;50.892;10.692;2022-08-18T15:19:01;17.30;;;10.75;;
6651;SDS011;3362;50.892;10.692;2022-08-18T15:21:28;14.73;;;9.95;;